CDT,Max TemperatureF,Mean TemperatureF,Min TemperatureF,Max Dew PointF,MeanDew PointF,Min DewpointF,Max Humidity, Mean Humidity, Min Humidity, Max Sea Level PressureIn, Mean Sea Level PressureIn, Min Sea Level PressureIn, Max VisibilityMiles, Mean VisibilityMiles, Min VisibilityMiles, Max Wind SpeedMPH, Mean Wind SpeedMPH, Max Gust SpeedMPH,PrecipitationIn, CloudCover, Events, WindDirDegrees
2013-4-1,40,34,27,20,16,12,63,50,37,30.24,30.14,29.97,10,10,10,22,12,28,0.00,1,,314
2013-4-2,44,34,24,19,15,9,74,50,25,30.36,30.29,30.25,10,10,10,18,8,25,0.00,1,,309
2013-4-3,47,34,21,20,15,9,84,54,23,30.48,30.40,30.33,10,10,9,13,5,17,0.00,4,,90
2013-4-4,58,43,28,36,25,18,70,50,30,30.33,30.15,30.01,10,10,10,17,8,21,0.00,2,,239
2013-4-5,53,43,32,30,25,19,70,51,32,30.27,30.17,30.07,10,10,10,20,9,26,T,4,Rain,65
2013-4-6,69,53,36,50,35,19,83,58,32,30.12,29.82,29.61,10,10,7,35,17,43,0.13,8,Rain-Thunderstorm,174
2013-4-7,61,50,39,46,38,33,86,64,42,29.97,29.87,29.66,10,10,9,22,8,30,0.00,5,,298
2013-4-8,68,54,40,54,47,33,100,78,56,29.98,29.74,29.52,10,8,2,26,11,35,0.76,7,Rain,137
2013-4-9,51,46,40,46,41,37,96,90,83,30.00,29.93,29.87,10,8,5,25,13,31,0.16,8,Rain-Thunderstorm,62
2013-4-10,42,39,35,39,36,34,93,93,92,30.03,29.94,29.84,10,7,2,28,16,38,1.39,8,Rain-Thunderstorm,52
2013-4-11,46,42,37,45,40,35,100,93,85,29.80,29.65,29.57,10,4,1,26,10,35,0.16,8,Rain,80
2013-4-12,45,41,36,37,33,28,92,81,70,29.87,29.70,29.59,10,9,4,23,12,29,T,8,Rain-Snow,259
2013-4-13,47,40,33,32,27,24,82,66,49,30.01,29.93,29.86,10,10,10,23,11,30,T,7,Snow,272
2013-4-14,68,52,36,48,37,27,70,59,48,30.02,29.82,29.61,10,10,10,30,16,38,0.01,7,,113
2013-4-15,63,52,41,55,48,37,100,70,39,30.02,29.81,29.64,10,9,4,26,9,36,0.24,8,Rain-Thunderstorm,238
2013-4-16,57,46,35,38,34,30,92,66,40,30.30,30.16,30.00,10,10,10,16,8,20,T,4,Rain,355
2013-4-17,50,46,41,48,39,30,100,79,58,30.31,30.10,29.78,10,6,0,30,11,39,3.06,8,Rain-Hail-Thunderstorm,77
2013-4-18,62,50,37,59,49,31,100,85,70,29.83,29.59,29.43,10,6,1,29,14,39,1.62,8,Rain-Thunderstorm,137
2013-4-19,41,37,33,31,29,26,76,68,59,29.97,29.63,29.48,10,9,2,32,19,43,0.01,8,Rain-Snow,267
2013-4-20,47,38,28,28,21,18,82,58,33,30.43,30.26,30.00,10,10,10,16,7,20,0.00,2,,325
2013-4-21,55,44,32,35,28,23,72,57,41,30.53,30.42,30.32,10,10,10,24,15,30,0.00,5,,144
2013-4-22,68,53,38,40,37,32,79,57,34,30.32,30.19,30.04,10,10,10,20,11,28,T,5,,163
2013-4-23,54,47,39,49,41,32,100,88,76,30.02,29.98,29.96,10,8,5,22,8,32,0.40,8,Rain,330
2013-4-24,53,45,36,31,28,24,76,56,35,30.11,30.06,29.99,10,10,10,20,10,24,0.00,5,,293
2013-4-25,52,45,37,36,31,24,79,58,36,30.34,30.20,30.05,10,10,10,21,10,25,T,5,Rain,261
2013-4-26,68,52,36,45,38,27,74,59,43,30.33,30.29,30.23,10,10,10,26,14,33,0.00,4,,186
2013-4-27,67,55,42,48,44,39,92,68,43,30.29,30.18,30.02,10,10,7,18,6,22,0.00,3,,161
2013-4-28,69,61,52,52,49,44,86,70,53,30.01,29.91,29.83,10,10,10,8,3,12,0.00,6,,158
2013-4-29,75,62,49,57,52,47,96,71,46,29.92,29.83,29.73,10,9,6,25,13,32,0.00,6,,179
2013-4-30,87,74,60,60,54,49,90,59,27,29.93,29.80,29.75,10,10,7,29,16,36,0.00,6,,190